createdAt,value
2017-07-05T00:00:40.132Z,100737.00
2017-07-05T00:03:09.274Z,100739.06
2017-07-05T00:05:38.351Z,100738.39
2017-07-05T00:08:07.423Z,100740.34
2017-07-05T00:10:37.252Z,100738.75
2017-07-05T00:13:06.352Z,100733.03
2017-07-05T00:15:35.456Z,100729.31
2017-07-05T00:18:04.696Z,100734.95
2017-07-05T00:20:33.759Z,100732.72
2017-07-05T00:23:02.828Z,100731.31
2017-07-05T00:25:31.938Z,100733.45
2017-07-05T00:28:01.001Z,100731.51
2017-07-05T00:30:30.852Z,100731.95
2017-07-05T00:32:59.933Z,100723.48
2017-07-05T00:35:29.003Z,100722.33
2017-07-05T00:37:58.036Z,100724.10
2017-07-05T00:40:27.142Z,100726.59
2017-07-05T00:42:56.226Z,100723.48
2017-07-05T00:45:25.295Z,100722.06
2017-07-05T00:47:54.371Z,100720.34
2017-07-05T00:50:24.230Z,100721.91
2017-07-05T00:52:53.313Z,100724.94
2017-07-05T00:55:22.386Z,100721.91
2017-07-05T00:57:52.237Z,100721.30
2017-07-05T01:00:21.315Z,100725.09
2017-07-05T01:02:50.399Z,100725.09
2017-07-05T01:05:19.471Z,100726.36
2017-07-05T01:07:49.312Z,100731.27
2017-07-05T01:10:18.429Z,100727.95
2017-07-05T01:12:47.506Z,100728.92
2017-07-05T01:15:16.616Z,100726.86
2017-07-05T01:17:45.680Z,100728.02
2017-07-05T01:20:14.865Z,100721.55
2017-07-05T01:22:43.912Z,100726.86
2017-07-05T01:25:12.970Z,100720.53
2017-07-05T01:27:42.806Z,100720.98
2017-07-05T01:30:11.877Z,100722.53
2017-07-05T01:32:40.952Z,100720.48
2017-07-05T01:35:10.049Z,100713.39
2017-07-05T01:37:39.129Z,100713.50
2017-07-05T01:40:08.190Z,100708.12
2017-07-05T01:42:37.272Z,100708.30
2017-07-05T01:45:06.373Z,100707.10
2017-07-05T01:47:35.437Z,100698.50
2017-07-05T01:50:05.278Z,100704.36
2017-07-05T01:52:34.374Z,100692.39
2017-07-05T01:55:03.545Z,100698.50
2017-07-05T01:57:32.616Z,100699.95
2017-07-05T02:00:01.678Z,100701.25
2017-07-05T02:02:30.756Z,100699.91
2017-07-05T02:04:59.805Z,100698.98
2017-07-05T02:07:28.886Z,100697.85
2017-07-05T02:09:57.949Z,100692.22
2017-07-05T02:12:27.008Z,100688.09
2017-07-05T02:14:56.857Z,100686.11
2017-07-05T02:17:25.933Z,100687.59
2017-07-05T02:19:55.164Z,100684.05
2017-07-05T02:22:24.257Z,100680.22
2017-07-05T02:24:53.299Z,100679.82
2017-07-05T02:27:23.133Z,100674.66
2017-07-05T02:29:52.971Z,100673.61
2017-07-05T02:32:22.074Z,100671.04
2017-07-05T02:34:51.133Z,100675.91
2017-07-05T02:37:20.931Z,100670.52
2017-07-05T02:39:50.765Z,100666.25
2017-07-05T02:42:20.061Z,100664.30
2017-07-05T02:44:49.100Z,100666.17
2017-07-05T02:47:18.201Z,100668.34
2017-07-05T02:49:47.275Z,100664.00
2017-07-05T02:52:16.394Z,100670.47
2017-07-05T02:54:45.496Z,100664.22
2017-07-05T02:57:14.598Z,100657.97
2017-07-05T02:59:43.708Z,100659.44
2017-07-05T03:02:14.036Z,100657.73
2017-07-05T03:04:43.866Z,100657.34
2017-07-05T03:07:12.929Z,100656.97
2017-07-05T03:09:41.997Z,100659.17
2017-07-05T03:12:11.153Z,100645.66
2017-07-05T03:14:40.975Z,100643.12
2017-07-05T03:17:10.058Z,100639.91
2017-07-05T03:19:39.114Z,100646.59
2017-07-05T03:22:08.193Z,100645.98
2017-07-05T03:24:37.355Z,100642.47
2017-07-05T03:27:06.387Z,100639.14
2017-07-05T03:29:35.457Z,100635.39
2017-07-05T03:32:04.585Z,100632.54
2017-07-05T03:34:33.639Z,100632.54
2017-07-05T03:37:02.712Z,100628.50
2017-07-05T03:39:32.559Z,100639.09
2017-07-05T03:42:01.629Z,100632.09
2017-07-05T03:44:30.723Z,100633.77
2017-07-05T03:47:00.547Z,100632.31
2017-07-05T03:49:30.393Z,100632.53
2017-07-05T03:51:59.453Z,100629.48
2017-07-05T03:54:28.539Z,100625.80
2017-07-05T03:56:57.651Z,100616.23
2017-07-05T03:59:27.461Z,100615.99
2017-07-05T04:01:56.545Z,100622.98
2017-07-05T04:04:26.392Z,100619.11
2017-07-05T04:06:55.455Z,100624.67
2017-07-05T04:09:24.520Z,100628.28
2017-07-05T04:11:53.591Z,100631.86
2017-07-05T04:14:22.664Z,100634.64
2017-07-05T04:16:51.720Z,100638.03
2017-07-05T04:19:21.544Z,100632.16
2017-07-05T04:21:50.630Z,100641.02
2017-07-05T04:24:20.467Z,100650.28
2017-07-05T04:26:49.556Z,100640.69
2017-07-05T04:29:18.626Z,100645.85
2017-07-05T04:31:47.694Z,100632.72
2017-07-05T04:34:16.982Z,100638.86
2017-07-05T04:36:46.037Z,100639.08
2017-07-05T04:39:15.857Z,100645.16
2017-07-05T04:41:44.946Z,100648.40
2017-07-05T04:44:14.001Z,100641.25
2017-07-05T04:46:43.079Z,100640.61
2017-07-05T04:49:12.153Z,100643.66
2017-07-05T04:51:41.642Z,100643.72
2017-07-05T04:54:11.628Z,100645.37
2017-07-05T04:56:40.636Z,100654.11
2017-07-05T04:59:09.714Z,100649.33
2017-07-05T05:01:38.793Z,100649.16
2017-07-05T05:04:07.886Z,100648.91
2017-07-05T05:06:36.949Z,100646.82
2017-07-05T05:09:06.094Z,100656.47
2017-07-05T05:11:35.154Z,100658.63
2017-07-05T05:14:04.252Z,100664.33
2017-07-05T05:16:33.319Z,100665.98
2017-07-05T05:19:02.409Z,100663.59
2017-07-05T05:21:31.472Z,100658.72
2017-07-05T05:24:00.551Z,100659.69
2017-07-05T05:26:29.627Z,100656.91
2017-07-05T05:28:58.733Z,100663.60
2017-07-05T05:31:27.821Z,100661.33
2017-07-05T05:33:57.119Z,100661.86
2017-07-05T05:36:26.176Z,100661.75
2017-07-05T05:38:55.250Z,100656.53
2017-07-05T05:41:24.352Z,100664.30
2017-07-05T05:43:53.429Z,100665.00
2017-07-05T05:46:22.507Z,100668.66
2017-07-05T05:48:51.616Z,100674.17
2017-07-05T05:51:20.655Z,100670.11
2017-07-05T05:53:49.712Z,100673.03
2017-07-05T05:56:18.811Z,100666.70
2017-07-05T05:58:47.867Z,100670.86
2017-07-05T06:01:16.937Z,100679.08
2017-07-05T06:03:46.054Z,100676.41
2017-07-05T06:06:15.109Z,100679.70
2017-07-05T06:08:44.197Z,100682.34
2017-07-05T06:11:13.257Z,100678.16
2017-07-05T06:13:42.345Z,100677.67
2017-07-05T06:16:11.397Z,100682.80
2017-07-05T06:18:40.476Z,100681.89
2017-07-05T06:21:09.585Z,100679.82
2017-07-05T06:23:38.662Z,100685.59
2017-07-05T06:26:07.810Z,100682.48
2017-07-05T06:28:36.887Z,100682.73
2017-07-05T06:31:05.976Z,100675.29
2017-07-05T06:33:35.059Z,100684.44
2017-07-05T06:36:04.210Z,100687.03
2017-07-05T06:38:33.324Z,100692.41
2017-07-05T06:41:02.404Z,100692.40
2017-07-05T06:43:31.456Z,100692.81
2017-07-05T06:46:00.556Z,100697.97
2017-07-05T06:48:29.595Z,100696.39
2017-07-05T06:50:58.677Z,100702.52
2017-07-05T06:53:27.748Z,100706.90
2017-07-05T06:55:56.797Z,100708.13
2017-07-05T06:58:25.881Z,100703.92
2017-07-05T07:00:54.930Z,100705.52
2017-07-05T07:03:24.005Z,100703.35
2017-07-05T07:05:53.082Z,100704.34
2017-07-05T07:08:22.193Z,100700.95
2017-07-05T07:10:51.284Z,100707.69
2017-07-05T07:13:20.419Z,100705.48
2017-07-05T07:15:49.476Z,100703.70
2017-07-05T07:18:18.566Z,100708.25
2017-07-05T07:20:47.856Z,100701.90
2017-07-05T07:23:16.935Z,100704.67
2017-07-05T07:25:46.033Z,100699.08
2017-07-05T07:28:15.133Z,100701.00
2017-07-05T07:30:44.809Z,100702.14
2017-07-05T07:33:13.897Z,100700.35
2017-07-05T07:35:42.992Z,100698.91
2017-07-05T07:38:12.078Z,100701.72
2017-07-05T07:40:41.120Z,100701.47
2017-07-05T07:43:10.267Z,100704.66
2017-07-05T07:45:39.353Z,100700.67
2017-07-05T07:48:08.409Z,100701.66
2017-07-05T07:50:38.991Z,100708.77
2017-07-05T07:53:09.143Z,100709.70
2017-07-05T07:55:38.224Z,100707.76
2017-07-05T07:58:07.293Z,100705.91
2017-07-05T08:00:36.350Z,100707.87
2017-07-05T08:03:05.452Z,100707.99
2017-07-05T08:05:34.549Z,100709.56
2017-07-05T08:08:03.588Z,100713.83
2017-07-05T08:10:32.658Z,100714.34
2017-07-05T08:13:01.720Z,100711.98
2017-07-05T08:15:30.813Z,100719.88
2017-07-05T08:17:59.868Z,100720.64
2017-07-05T08:20:28.929Z,100723.03
2017-07-05T08:22:58.071Z,100712.59
2017-07-05T08:25:27.098Z,100720.52
2017-07-05T08:27:56.193Z,100716.55
2017-07-05T08:30:25.252Z,100716.52
2017-07-05T08:32:54.334Z,100716.02
2017-07-05T08:35:23.644Z,100723.73
2017-07-05T08:37:52.744Z,100722.13
2017-07-05T08:40:21.793Z,100722.39
2017-07-05T08:42:50.873Z,100733.11
2017-07-05T08:45:19.935Z,100719.66
2017-07-05T08:47:49.037Z,100722.28
2017-07-05T08:50:18.089Z,100713.91
2017-07-05T08:52:47.183Z,100722.44
2017-07-05T08:55:16.262Z,100724.16
2017-07-05T08:57:45.309Z,100725.47
2017-07-05T09:00:14.384Z,100716.69
2017-07-05T09:02:43.468Z,100712.48
2017-07-05T09:05:12.553Z,100731.41
2017-07-05T09:07:41.621Z,100724.84
2017-07-05T09:10:10.697Z,100725.55
2017-07-05T09:12:39.749Z,100729.90
2017-07-05T09:15:08.860Z,100719.16
2017-07-05T09:17:37.901Z,100722.30
2017-07-05T09:20:07.029Z,100719.48
2017-07-05T09:22:36.096Z,100720.45
2017-07-05T09:25:05.152Z,100732.59
2017-07-05T09:27:34.226Z,100719.88
2017-07-05T09:30:03.384Z,100719.58
2017-07-05T09:32:32.452Z,100722.59
2017-07-05T09:35:01.532Z,100725.70
2017-07-05T09:37:30.599Z,100722.36
2017-07-05T09:39:59.678Z,100719.58
2017-07-05T09:42:28.776Z,100721.20
2017-07-05T09:44:57.824Z,100725.66
2017-07-05T09:47:26.907Z,100723.86
2017-07-05T09:49:55.953Z,100724.23
2017-07-05T09:52:25.040Z,100725.05
2017-07-05T09:54:54.112Z,100717.90
2017-07-05T09:57:23.373Z,100723.39
2017-07-05T09:59:52.429Z,100724.95
2017-07-05T10:02:21.501Z,100718.20
2017-07-05T10:04:50.637Z,100722.30
2017-07-05T10:07:19.721Z,100712.71
2017-07-05T10:09:48.812Z,100713.91
2017-07-05T10:12:17.848Z,100716.53
2017-07-05T10:14:46.953Z,100719.53
2017-07-05T10:17:16.032Z,100718.17
2017-07-05T10:19:45.112Z,100726.12
2017-07-05T10:22:14.243Z,100718.08
2017-07-05T10:24:43.285Z,100716.59
2017-07-05T10:27:12.364Z,100722.41
2017-07-05T10:29:41.439Z,100715.16
2017-07-05T10:32:10.544Z,100716.75
2017-07-05T10:34:39.636Z,100707.06
2017-07-05T10:37:08.722Z,100712.88
2017-07-05T10:39:37.803Z,100706.27
2017-07-05T10:42:06.908Z,100699.05
2017-07-05T10:44:36.020Z,100698.48
2017-07-05T10:47:05.187Z,100699.91
2017-07-05T10:49:34.301Z,100695.38
2017-07-05T10:52:03.439Z,100700.08
2017-07-05T10:54:32.504Z,100700.42
2017-07-05T10:57:01.552Z,100693.32
2017-07-05T10:59:30.657Z,100689.63
2017-07-05T11:05:08.070Z,100690.91
2017-07-05T11:07:38.532Z,100688.95
2017-07-05T11:10:09.528Z,100680.45
2017-07-05T11:12:39.636Z,100688.44
2017-07-05T11:15:09.177Z,100686.33
2017-07-05T11:17:38.225Z,100679.84
2017-07-05T11:20:07.841Z,100675.34
2017-07-05T11:22:36.992Z,100677.72
2017-07-05T11:25:06.107Z,100680.42
2017-07-05T11:27:35.237Z,100677.43
2017-07-05T11:30:04.288Z,100669.62
2017-07-05T11:32:33.362Z,100669.06
2017-07-05T11:35:02.457Z,100670.14
2017-07-05T11:37:31.540Z,100671.45
2017-07-05T11:40:00.619Z,100669.05
2017-07-05T11:42:29.692Z,100661.80
2017-07-05T11:44:58.776Z,100665.30
2017-07-05T11:47:27.859Z,100660.42
2017-07-05T11:49:56.932Z,100659.33
2017-07-05T11:52:26.005Z,100661.45
2017-07-05T11:54:55.061Z,100656.84
2017-07-05T11:57:24.176Z,100653.95
2017-07-05T11:59:53.252Z,100651.03
2017-07-05T12:02:22.311Z,100647.36
2017-07-05T12:04:51.393Z,100648.37
2017-07-05T12:07:20.456Z,100653.78
2017-07-05T12:09:49.572Z,100644.18
2017-07-05T12:12:18.616Z,100646.17
2017-07-05T12:14:47.700Z,100649.74
2017-07-05T12:17:16.844Z,100652.70
2017-07-05T12:19:45.901Z,100651.34
2017-07-05T12:22:15.016Z,100649.00
2017-07-05T12:24:44.055Z,100639.96
2017-07-05T12:27:13.136Z,100645.38
2017-07-05T12:29:42.248Z,100643.53
2017-07-05T12:32:11.330Z,100644.14
2017-07-05T12:34:40.431Z,100641.78
2017-07-05T12:37:09.527Z,100638.39
2017-07-05T12:39:38.609Z,100633.09
2017-07-05T12:42:07.728Z,100634.86
2017-07-05T12:44:36.785Z,100644.27
2017-07-05T12:47:05.892Z,100637.56
2017-07-05T12:49:34.964Z,100635.53
2017-07-05T12:52:04.055Z,100641.20
2017-07-05T12:54:33.123Z,100629.36
2017-07-05T12:57:02.203Z,100627.08
2017-07-05T12:59:31.293Z,100624.75
2017-07-05T13:02:00.348Z,100621.86
2017-07-05T13:04:29.433Z,100623.43
2017-07-05T13:06:58.507Z,100623.18
2017-07-05T13:09:27.603Z,100627.39
2017-07-05T13:11:56.709Z,100625.22
2017-07-05T13:14:25.791Z,100622.89
2017-07-05T13:16:54.855Z,100626.63
2017-07-05T13:19:23.913Z,100625.66
2017-07-05T13:21:52.998Z,100630.63
2017-07-05T13:24:22.104Z,100621.92
2017-07-05T13:26:51.188Z,100623.65
2017-07-05T13:29:20.260Z,100622.78
2017-07-05T13:31:49.322Z,100623.31
2017-07-05T13:34:18.396Z,100627.39
2017-07-05T13:36:47.465Z,100627.73
2017-07-05T13:39:16.555Z,100620.66
2017-07-05T13:41:45.640Z,100620.56
2017-07-05T13:44:14.727Z,100624.25
2017-07-05T13:46:43.783Z,100620.59
2017-07-05T13:49:12.871Z,100624.16
2017-07-05T13:51:41.971Z,100622.45
2017-07-05T13:54:11.029Z,100627.65
2017-07-05T13:56:40.885Z,100627.41
2017-07-05T13:59:09.977Z,100626.42
2017-07-05T14:01:39.040Z,100626.42
2017-07-05T14:04:08.125Z,100623.13
2017-07-05T14:06:37.210Z,100619.44
2017-07-05T14:09:06.325Z,100619.40
2017-07-05T14:11:35.395Z,100622.89
2017-07-05T14:14:04.501Z,100621.64
2017-07-05T14:16:33.576Z,100618.50
2017-07-05T14:19:02.650Z,100622.42
2017-07-05T14:21:31.738Z,100617.45
2017-07-05T14:24:00.863Z,100624.34
2017-07-05T14:26:29.901Z,100624.98
2017-07-05T14:28:58.991Z,100621.45
2017-07-05T14:31:28.838Z,100610.70
2017-07-05T14:33:57.892Z,100612.92
2017-07-05T14:36:27.750Z,100608.40
2017-07-05T14:38:56.846Z,100615.34
2017-07-05T14:41:25.931Z,100608.81
2017-07-05T14:43:55.019Z,100611.27
2017-07-05T14:46:24.842Z,100609.38
2017-07-05T14:48:53.917Z,100609.83
2017-07-05T14:51:22.974Z,100604.36
2017-07-05T14:53:52.081Z,100610.41
2017-07-05T14:56:21.163Z,100605.41
2017-07-05T14:58:50.884Z,100605.66
2017-07-05T15:01:19.972Z,100609.52
2017-07-05T15:03:49.036Z,100605.66
2017-07-05T15:06:18.140Z,100610.77
2017-07-05T15:08:47.197Z,100608.31
2017-07-05T15:11:16.269Z,100607.92
2017-07-05T15:13:46.100Z,100611.14
2017-07-05T15:16:15.948Z,100608.92
2017-07-05T15:18:45.045Z,100614.20
2017-07-05T15:21:14.903Z,100608.44
2017-07-05T15:23:43.972Z,100614.11
2017-07-05T15:26:13.053Z,100610.63
2017-07-05T15:28:42.132Z,100606.90
2017-07-05T15:31:11.252Z,100606.63
2017-07-05T15:33:40.332Z,100607.33
2017-07-05T15:36:09.418Z,100597.69
2017-07-05T15:38:39.498Z,100601.00
2017-07-05T15:41:08.578Z,100600.34
2017-07-05T15:43:37.649Z,100602.53
2017-07-05T15:46:06.722Z,100597.13
2017-07-05T15:48:35.813Z,100598.78
2017-07-05T15:51:04.904Z,100596.00
2017-07-05T15:53:33.990Z,100595.45
2017-07-05T15:56:03.900Z,100596.92
2017-07-05T15:58:33.090Z,100603.17
2017-07-05T16:01:02.181Z,100591.78
2017-07-05T16:03:32.030Z,100593.57
2017-07-05T16:06:01.128Z,100596.87
2017-07-05T16:08:30.498Z,100596.48
2017-07-05T16:10:59.579Z,100595.48
2017-07-05T16:13:28.644Z,100595.73
2017-07-05T16:15:57.700Z,100590.23
2017-07-05T16:18:26.792Z,100587.83
2017-07-05T16:20:55.854Z,100584.34
2017-07-05T16:23:24.929Z,100587.30
2017-07-05T16:25:53.997Z,100587.75
2017-07-05T16:28:23.074Z,100590.88
2017-07-05T16:30:52.260Z,100587.33
2017-07-05T16:33:21.293Z,100578.38
2017-07-05T16:35:50.397Z,100578.38
2017-07-05T16:38:19.484Z,100583.31
2017-07-05T16:40:48.583Z,100582.09
2017-07-05T16:43:17.617Z,100576.84
2017-07-05T16:45:47.461Z,100578.41
2017-07-05T16:48:17.811Z,100572.73
2017-07-05T16:50:46.862Z,100569.39
2017-07-05T16:53:16.697Z,100570.84
2017-07-05T16:55:45.972Z,100575.03
2017-07-05T16:58:15.060Z,100566.00
2017-07-05T17:00:44.914Z,100564.78
2017-07-05T17:03:14.021Z,100561.09
2017-07-05T17:05:43.112Z,100559.13
2017-07-05T17:08:12.371Z,100554.47
2017-07-05T17:10:41.482Z,100553.52
2017-07-05T17:13:11.336Z,100555.17
2017-07-05T17:15:40.438Z,100554.95
2017-07-05T17:18:09.513Z,100545.23
2017-07-05T17:20:38.590Z,100544.78
2017-07-05T17:23:07.667Z,100544.88
2017-07-05T17:25:37.504Z,100542.86
2017-07-05T17:28:06.863Z,100552.05
2017-07-05T17:30:35.940Z,100547.22
2017-07-05T17:33:05.016Z,100551.58
2017-07-05T17:35:34.383Z,100548.84
2017-07-05T17:38:03.442Z,100553.63
2017-07-05T17:40:32.505Z,100550.70
2017-07-05T17:43:01.959Z,100550.13
2017-07-05T17:45:31.056Z,100546.85
2017-07-05T17:48:01.241Z,100548.67
2017-07-05T17:50:30.347Z,100552.55
2017-07-05T17:52:59.438Z,100551.11
2017-07-05T17:55:28.734Z,100549.69
2017-07-05T17:57:57.831Z,100556.66
2017-07-05T18:00:26.917Z,100552.94
2017-07-05T18:02:55.977Z,100554.05
2017-07-05T18:05:25.070Z,100553.66
2017-07-05T18:07:54.125Z,100557.33
2017-07-05T18:10:23.353Z,100562.16
2017-07-05T18:12:53.191Z,100554.88
2017-07-05T18:15:22.289Z,100556.91
2017-07-05T18:17:51.339Z,100557.77
2017-07-05T18:20:20.414Z,100565.20
2017-07-05T18:22:49.497Z,100558.81
2017-07-05T18:25:18.581Z,100562.78
2017-07-05T18:27:47.661Z,100561.27
2017-07-05T18:30:16.756Z,100557.09
2017-07-05T18:32:46.694Z,100566.42
2017-07-05T18:35:15.744Z,100560.63
2017-07-05T18:37:44.801Z,100560.38
2017-07-05T18:40:14.112Z,100560.48
2017-07-05T18:42:43.186Z,100563.45
2017-07-05T18:45:12.282Z,100570.28
2017-07-05T18:47:41.334Z,100567.27
2017-07-05T18:50:10.453Z,100573.46
2017-07-05T18:52:39.504Z,100575.96
2017-07-05T18:55:09.357Z,100568.31
2017-07-05T18:57:38.414Z,100576.56
2017-07-05T19:00:08.279Z,100572.30
2017-07-05T19:02:37.580Z,100575.91
2017-07-05T19:05:06.681Z,100569.27
2017-07-05T19:07:35.809Z,100568.16
2017-07-05T19:10:04.861Z,100569.81
2017-07-05T19:12:33.903Z,100573.85
2017-07-05T19:15:03.719Z,100583.77
2017-07-05T19:17:33.559Z,100577.00
2017-07-05T19:20:03.341Z,100585.36
2017-07-05T19:22:32.448Z,100586.08
2017-07-05T19:25:02.270Z,100590.24
2017-07-05T19:27:31.351Z,100595.57
2017-07-05T19:30:00.404Z,100590.47
2017-07-05T19:32:29.724Z,100592.79
2017-07-05T19:34:58.784Z,100590.94
2017-07-05T19:37:27.861Z,100598.57
2017-07-05T19:39:56.956Z,100591.37
2017-07-05T19:42:26.033Z,100591.00
2017-07-05T19:44:55.861Z,100591.64
2017-07-05T19:47:24.958Z,100602.11
2017-07-05T19:49:54.040Z,100602.59
2017-07-05T19:52:23.897Z,100599.50
2017-07-05T19:54:52.933Z,100608.05
2017-07-05T19:57:22.816Z,100602.13
2017-07-05T19:59:51.904Z,100609.09
2017-07-05T20:02:20.975Z,100611.50
2017-07-05T20:04:50.061Z,100620.64
2017-07-05T20:07:19.141Z,100617.67
2017-07-05T20:09:48.226Z,100615.73
2017-07-05T20:12:18.072Z,100616.94
2017-07-05T20:14:47.147Z,100625.07
2017-07-05T20:17:17.009Z,100632.22
2017-07-05T20:19:46.064Z,100631.02
2017-07-05T20:22:15.149Z,100639.36
2017-07-05T20:24:44.973Z,100645.29
2017-07-05T20:27:14.081Z,100644.11
2017-07-05T20:29:43.151Z,100644.11
2017-07-05T20:32:12.275Z,100642.33
2017-07-05T20:34:41.356Z,100645.67
2017-07-05T20:37:10.447Z,100648.45
2017-07-05T20:39:40.297Z,100645.45
2017-07-05T20:42:09.700Z,100653.39
2017-07-05T20:44:38.762Z,100652.39
2017-07-05T20:47:07.851Z,100655.55
2017-07-05T20:49:36.940Z,100658.72
2017-07-05T20:52:06.843Z,100663.25
2017-07-05T20:54:35.911Z,100660.09
2017-07-05T20:57:04.992Z,100658.89
2017-07-05T20:59:34.122Z,100656.08
2017-07-05T21:02:03.167Z,100660.01
2017-07-05T21:04:32.261Z,100653.43
2017-07-05T21:07:02.176Z,100662.53
2017-07-05T21:09:31.293Z,100657.78
2017-07-05T21:12:00.343Z,100666.89
2017-07-05T21:14:29.496Z,100671.61
2017-07-05T21:16:58.616Z,100670.39
2017-07-05T21:19:27.669Z,100679.89
2017-07-05T21:21:56.788Z,100672.14
2017-07-05T21:24:25.861Z,100683.19
2017-07-05T21:26:54.920Z,100678.20
2017-07-05T21:29:23.981Z,100679.36
2017-07-05T21:31:53.862Z,100677.58
2017-07-05T21:34:22.917Z,100676.78
2017-07-05T21:36:52.989Z,100680.50
2017-07-05T21:39:22.070Z,100680.53
2017-07-05T21:41:51.145Z,100679.52
2017-07-05T21:44:20.204Z,100681.45
2017-07-05T21:46:50.081Z,100687.50
2017-07-05T21:49:19.173Z,100680.54
2017-07-05T21:51:48.402Z,100684.49
2017-07-05T21:54:17.477Z,100681.83
2017-07-05T21:56:46.523Z,100691.50
2017-07-05T21:59:15.641Z,100688.88
2017-07-05T22:01:44.705Z,100687.06
2017-07-05T22:04:13.782Z,100686.70
2017-07-05T22:06:42.881Z,100690.06
2017-07-05T22:09:11.935Z,100690.42
2017-07-05T22:11:41.012Z,100680.73
2017-07-05T22:14:10.133Z,100679.28
2017-07-05T22:16:39.191Z,100683.59
2017-07-05T22:19:08.247Z,100683.96
2017-07-05T22:21:37.353Z,100675.23
2017-07-05T22:24:06.458Z,100686.03
2017-07-05T22:26:35.520Z,100679.32
2017-07-05T22:29:04.620Z,100680.30
2017-07-05T22:31:33.688Z,100678.73
2017-07-05T22:34:02.760Z,100681.44
2017-07-05T22:36:31.851Z,100689.31
2017-07-05T22:39:00.944Z,100680.62
2017-07-05T22:41:30.041Z,100676.64
2017-07-05T22:43:59.183Z,100682.91
2017-07-05T22:46:28.326Z,100679.40
2017-07-05T22:48:57.421Z,100680.97
2017-07-05T22:51:26.467Z,100676.84
2017-07-05T22:53:55.531Z,100680.79
2017-07-05T22:56:24.632Z,100680.79
2017-07-05T22:58:53.673Z,100685.13
2017-07-05T23:01:22.816Z,100690.00
2017-07-05T23:03:51.899Z,100685.45
2017-07-05T23:06:21.005Z,100693.06
2017-07-05T23:08:50.057Z,100691.42
2017-07-05T23:11:19.396Z,100690.78
2017-07-05T23:13:48.565Z,100685.81
2017-07-05T23:16:17.661Z,100687.13
2017-07-05T23:18:46.699Z,100684.30
2017-07-05T23:21:15.812Z,100688.23
2017-07-05T23:23:44.874Z,100688.95
2017-07-05T23:26:13.964Z,100686.76
2017-07-05T23:28:43.036Z,100690.62
2017-07-05T23:31:12.112Z,100691.00
2017-07-05T23:33:41.173Z,100696.38
2017-07-05T23:36:10.235Z,100694.86
2017-07-05T23:38:39.325Z,100690.78
2017-07-05T23:41:08.431Z,100690.83
2017-07-05T23:43:37.461Z,100684.69
2017-07-05T23:46:06.532Z,100695.05
2017-07-05T23:48:35.631Z,100692.52
2017-07-05T23:51:04.773Z,100699.80
2017-07-05T23:53:33.868Z,100701.67
2017-07-05T23:56:02.956Z,100702.20
2017-07-05T23:58:32.058Z,100702.41
